sensor_id;sensor_type;location;lat;lon;timestamp;noise_LAeq;noise_LA_min;noise_LA_max;noise_LA01;noise_LA95
47962;Laerm;33723;50.928;6.960;2023-01-10T06:04:12;67.76;53.26;82.19;;
47962;Laerm;33723;50.928;6.960;2023-01-10T06:06:38;63.37;53.97;70.08;;
47962;Laerm;33723;50.928;6.960;2023-01-10T06:09:03;65.38;49.82;74.10;;
47962;Laerm;33723;50.928;6.960;2023-01-10T06:11:28;65.59;50.59;74.29;;
47962;Laerm;33723;50.928;6.960;2023-01-10T06:13:57;65.68;52.87;75.70;;
47962;Laerm;33723;50.928;6.960;2023-01-10T06:16:23;65.94;52.34;75.18;;
47962;Laerm;33723;50.928;6.960;2023-01-10T06:18:49;66.80;53.89;77.16;;
47962;Laerm;33723;50.928;6.960;2023-01-10T06:21:14;64.34;52.35;72.40;;
47962;Laerm;33723;50.928;6.960;2023-01-10T06:23:40;67.06;54.60;88.33;;
47962;Laerm;33723;50.928;6.960;2023-01-10T06:26:05;64.68;53.10;73.74;;
47962;Laerm;33723;50.928;6.960;2023-01-10T06:28:30;67.04;53.28;84.62;;
47962;Laerm;33723;50.928;6.960;2023-01-10T06:30:55;68.07;52.57;79.47;;
47962;Laerm;33723;50.928;6.960;2023-01-10T06:33:21;69.24;56.10;88.24;;
47962;Laerm;33723;50.928;6.960;2023-01-10T06:35:46;64.39;51.33;71.25;;
47962;Laerm;33723;50.928;6.960;2023-01-10T06:38:12;65.44;53.46;74.40;;
47962;Laerm;33723;50.928;6.960;2023-01-10T06:40:37;66.14;52.86;76.10;;
47962;Laerm;33723;50.928;6.960;2023-01-10T06:43:03;66.24;54.77;74.70;;
47962;Laerm;33723;50.928;6.960;2023-01-10T06:45:28;66.04;53.24;75.63;;
47962;Laerm;33723;50.928;6.960;2023-01-10T06:47:53;68.37;54.26;80.35;;
47962;Laerm;33723;50.928;6.960;2023-01-10T06:50:18;64.84;52.57;74.48;;
47962;Laerm;33723;50.928;6.960;2023-01-10T06:52:44;66.77;55.46;77.88;;
47962;Laerm;33723;50.928;6.960;2023-01-10T06:55:09;67.16;55.42;75.71;;
47962;Laerm;33723;50.928;6.960;2023-01-10T06:57:34;65.25;53.18;75.10;;
47962;Laerm;33723;50.928;6.960;2023-01-10T07:00:07;68.42;54.94;85.76;;
47962;Laerm;33723;50.928;6.960;2023-01-10T07:02:33;68.58;54.52;81.29;;
47962;Laerm;33723;50.928;6.960;2023-01-10T07:04:58;65.99;55.58;76.45;;
47962;Laerm;33723;50.928;6.960;2023-01-10T07:07:23;66.57;55.41;77.04;;
47962;Laerm;33723;50.928;6.960;2023-01-10T07:09:48;67.90;54.34;75.83;;
47962;Laerm;33723;50.928;6.960;2023-01-10T07:12:14;65.75;52.91;77.66;;
47962;Laerm;33723;50.928;6.960;2023-01-10T07:14:39;67.48;55.39;82.75;;
47962;Laerm;33723;50.928;6.960;2023-01-10T07:17:04;68.23;56.36;77.00;;
47962;Laerm;33723;50.928;6.960;2023-01-10T07:19:29;65.94;54.71;77.09;;
47962;Laerm;33723;50.928;6.960;2023-01-10T07:21:55;65.03;54.45;74.84;;
47962;Laerm;33723;50.928;6.960;2023-01-10T07:24:20;67.37;56.29;77.52;;
47962;Laerm;33723;50.928;6.960;2023-01-10T07:26:45;66.77;52.56;76.72;;
47962;Laerm;33723;50.928;6.960;2023-01-10T07:29:11;69.00;54.70;86.36;;
47962;Laerm;33723;50.928;6.960;2023-01-10T07:31:36;69.32;54.51;80.87;;
47962;Laerm;33723;50.928;6.960;2023-01-10T07:34:01;66.75;53.97;77.53;;
47962;Laerm;33723;50.928;6.960;2023-01-10T07:36:26;65.07;52.89;74.39;;
47962;Laerm;33723;50.928;6.960;2023-01-10T07:38:52;65.69;54.89;73.19;;
47962;Laerm;33723;50.928;6.960;2023-01-10T07:41:17;66.30;54.05;75.79;;
47962;Laerm;33723;50.928;6.960;2023-01-10T07:43:42;64.97;52.28;78.07;;
47962;Laerm;33723;50.928;6.960;2023-01-10T07:46:08;65.41;52.67;73.74;;
47962;Laerm;33723;50.928;6.960;2023-01-10T07:48:36;67.19;54.23;76.83;;
47962;Laerm;33723;50.928;6.960;2023-01-10T07:51:01;64.75;54.25;72.49;;
47962;Laerm;33723;50.928;6.960;2023-01-10T07:53:27;67.65;54.99;75.53;;
47962;Laerm;33723;50.928;6.960;2023-01-10T07:55:53;66.57;53.64;74.03;;
47962;Laerm;33723;50.928;6.960;2023-01-10T07:58:18;67.31;54.57;89.75;;
47962;Laerm;33723;50.928;6.960;2023-01-10T08:00:44;66.49;55.57;79.85;;
47962;Laerm;33723;50.928;6.960;2023-01-10T08:03:14;67.25;53.47;74.90;;
47962;Laerm;33723;50.928;6.960;2023-01-10T08:05:39;65.62;54.11;74.96;;
47962;Laerm;33723;50.928;6.960;2023-01-10T08:08:05;65.91;55.44;74.95;;
47962;Laerm;33723;50.928;6.960;2023-01-10T08:10:32;68.63;53.02;78.90;;
47962;Laerm;33723;50.928;6.960;2023-01-10T08:12:58;67.00;51.41;80.73;;
47962;Laerm;33723;50.928;6.960;2023-01-10T08:15:23;67.31;54.16;76.97;;
47962;Laerm;33723;50.928;6.960;2023-01-10T08:17:48;66.77;52.63;77.77;;
47962;Laerm;33723;50.928;6.960;2023-01-10T08:20:14;65.58;50.23;75.83;;
47962;Laerm;33723;50.928;6.960;2023-01-10T08:22:39;66.57;54.80;77.64;;
47962;Laerm;33723;50.928;6.960;2023-01-10T08:25:04;68.30;54.05;84.75;;
47962;Laerm;33723;50.928;6.960;2023-01-10T08:27:30;65.75;53.11;80.49;;
47962;Laerm;33723;50.928;6.960;2023-01-10T08:29:55;67.38;53.21;82.91;;
47962;Laerm;33723;50.928;6.960;2023-01-10T08:32:20;66.85;55.02;81.87;;
47962;Laerm;33723;50.928;6.960;2023-01-10T08:34:46;66.76;54.68;75.61;;
47962;Laerm;33723;50.928;6.960;2023-01-10T08:37:11;67.12;52.45;79.74;;
47962;Laerm;33723;50.928;6.960;2023-01-10T08:39:37;67.49;55.87;78.87;;
47962;Laerm;33723;50.928;6.960;2023-01-10T08:42:03;65.15;53.19;75.56;;
47962;Laerm;33723;50.928;6.960;2023-01-10T08:44:28;64.45;53.44;79.03;;
47962;Laerm;33723;50.928;6.960;2023-01-10T08:46:53;66.68;53.84;76.79;;
47962;Laerm;33723;50.928;6.960;2023-01-10T08:49:20;68.72;53.58;82.99;;
47962;Laerm;33723;50.928;6.960;2023-01-10T08:51:45;66.32;52.73;76.27;;
47962;Laerm;33723;50.928;6.960;2023-01-10T08:54:10;68.62;53.78;87.84;;
47962;Laerm;33723;50.928;6.960;2023-01-10T08:56:35;62.62;50.35;71.40;;
47962;Laerm;33723;50.928;6.960;2023-01-10T08:59:03;65.38;53.40;73.84;;
47962;Laerm;33723;50.928;6.960;2023-01-10T09:01:28;68.45;55.09;84.95;;
47962;Laerm;33723;50.928;6.960;2023-01-10T09:03:53;67.32;50.37;81.05;;
47962;Laerm;33723;50.928;6.960;2023-01-10T09:06:18;62.87;47.36;75.15;;
47962;Laerm;33723;50.928;6.960;2023-01-10T09:08:44;65.08;51.69;74.96;;
47962;Laerm;33723;50.928;6.960;2023-01-10T09:11:09;62.51;50.55;71.25;;
47962;Laerm;33723;50.928;6.960;2023-01-10T09:13:34;68.23;50.04;85.55;;
47962;Laerm;33723;50.928;6.960;2023-01-10T09:15:59;66.14;50.35;79.47;;
47962;Laerm;33723;50.928;6.960;2023-01-10T09:18:25;63.27;52.28;73.01;;
47962;Laerm;33723;50.928;6.960;2023-01-10T09:20:50;66.02;51.88;76.66;;
47962;Laerm;33723;50.928;6.960;2023-01-10T09:23:17;66.05;52.09;77.08;;
47962;Laerm;33723;50.928;6.960;2023-01-10T09:25:48;64.55;51.48;74.13;;
47962;Laerm;33723;50.928;6.960;2023-01-10T09:28:14;67.05;53.71;78.15;;
47962;Laerm;33723;50.928;6.960;2023-01-10T09:30:40;65.09;55.48;75.48;;
47962;Laerm;33723;50.928;6.960;2023-01-10T09:33:05;65.36;53.58;77.29;;
47962;Laerm;33723;50.928;6.960;2023-01-10T09:35:31;65.15;49.81;75.78;;
47962;Laerm;33723;50.928;6.960;2023-01-10T09:37:57;66.62;50.70;77.82;;
47962;Laerm;33723;50.928;6.960;2023-01-10T09:40:30;66.02;51.29;76.99;;
47962;Laerm;33723;50.928;6.960;2023-01-10T09:45:36;65.77;51.11;75.26;;
47962;Laerm;33723;50.928;6.960;2023-01-10T09:48:04;63.66;53.16;70.98;;
47962;Laerm;33723;50.928;6.960;2023-01-10T09:53:22;64.17;51.98;73.68;;
47962;Laerm;33723;50.928;6.960;2023-01-10T09:55:52;67.02;53.70;78.05;;
47962;Laerm;33723;50.928;6.960;2023-01-10T09:58:18;64.70;54.36;71.11;;
47962;Laerm;33723;50.928;6.960;2023-01-10T10:01:00;65.98;51.06;75.83;;
47962;Laerm;33723;50.928;6.960;2023-01-10T10:03:48;63.75;46.20;74.75;;
47962;Laerm;33723;50.928;6.960;2023-01-10T10:06:16;63.35;46.25;73.03;;
47962;Laerm;33723;50.928;6.960;2023-01-10T10:08:42;67.08;55.26;76.23;;
47962;Laerm;33723;50.928;6.960;2023-01-10T10:16:29;66.58;52.37;81.62;;
47962;Laerm;33723;50.928;6.960;2023-01-10T10:36:56;71.50;65.97;83.87;;
47962;Laerm;33723;50.928;6.960;2023-01-10T10:39:36;71.05;64.47;80.11;;
47962;Laerm;33723;50.928;6.960;2023-01-10T10:42:02;69.81;65.22;81.14;;
47962;Laerm;33723;50.928;6.960;2023-01-10T10:47:22;67.44;62.59;74.56;;
47962;Laerm;33723;50.928;6.960;2023-01-10T10:50:37;68.97;62.33;77.88;;
47962;Laerm;33723;50.928;6.960;2023-01-10T10:52:36;68.11;60.47;84.87;;
47962;Laerm;33723;50.928;6.960;2023-01-10T10:55:02;69.95;60.44;76.72;;
47962;Laerm;33723;50.928;6.960;2023-01-10T10:57:28;74.27;59.98;83.37;;
47962;Laerm;33723;50.928;6.960;2023-01-10T10:59:54;74.76;60.50;80.27;;
47962;Laerm;33723;50.928;6.960;2023-01-10T11:02:27;74.18;61.55;82.10;;
47962;Laerm;33723;50.928;6.960;2023-01-10T11:04:57;71.19;64.15;75.79;;
47962;Laerm;33723;50.928;6.960;2023-01-10T11:07:23;71.00;64.30;77.19;;
47962;Laerm;33723;50.928;6.960;2023-01-10T11:09:49;69.13;62.05;76.83;;
47962;Laerm;33723;50.928;6.960;2023-01-10T11:12:17;70.28;62.18;80.65;;
47962;Laerm;33723;50.928;6.960;2023-01-10T11:14:47;69.64;63.04;77.07;;
47962;Laerm;33723;50.928;6.960;2023-01-10T11:17:17;67.85;58.15;76.04;;
47962;Laerm;33723;50.928;6.960;2023-01-10T11:19:53;63.79;53.40;75.06;;
47962;Laerm;33723;50.928;6.960;2023-01-10T11:22:18;63.03;53.12;70.75;;
47962;Laerm;33723;50.928;6.960;2023-01-10T11:24:52;64.37;51.24;76.63;;
47962;Laerm;33723;50.928;6.960;2023-01-10T11:27:23;66.09;49.85;87.13;;
47962;Laerm;33723;50.928;6.960;2023-01-10T11:30:02;63.13;50.16;70.11;;
47962;Laerm;33723;50.928;6.960;2023-01-10T11:32:34;66.13;55.40;76.66;;
47962;Laerm;33723;50.928;6.960;2023-01-10T11:35:02;65.84;53.41;81.99;;
47962;Laerm;33723;50.928;6.960;2023-01-10T11:37:29;66.68;56.44;74.60;;
47962;Laerm;33723;50.928;6.960;2023-01-10T11:42:40;66.86;52.22;83.21;;
47962;Laerm;33723;50.928;6.960;2023-01-10T11:47:57;66.07;53.56;81.10;;
47962;Laerm;33723;50.928;6.960;2023-01-10T11:50:27;64.52;51.77;82.12;;
47962;Laerm;33723;50.928;6.960;2023-01-10T11:52:54;66.54;54.26;80.75;;
47962;Laerm;33723;50.928;6.960;2023-01-10T11:55:21;66.82;51.17;80.96;;
47962;Laerm;33723;50.928;6.960;2023-01-10T11:58:20;67.09;53.16;77.83;;
47962;Laerm;33723;50.928;6.960;2023-01-10T12:00:39;63.59;50.39;73.77;;
47962;Laerm;33723;50.928;6.960;2023-01-10T12:05:39;65.26;52.02;76.70;;
47962;Laerm;33723;50.928;6.960;2023-01-10T12:08:05;67.60;53.81;77.62;;
47962;Laerm;33723;50.928;6.960;2023-01-10T12:10:32;64.25;49.35;74.31;;
47962;Laerm;33723;50.928;6.960;2023-01-10T12:12:58;67.27;52.99;85.67;;
47962;Laerm;33723;50.928;6.960;2023-01-10T12:15:28;63.65;51.84;76.14;;
47962;Laerm;33723;50.928;6.960;2023-01-10T12:17:54;67.69;54.10;89.73;;
47962;Laerm;33723;50.928;6.960;2023-01-10T12:20:20;66.05;55.11;77.40;;
47962;Laerm;33723;50.928;6.960;2023-01-10T12:22:48;68.01;54.58;80.02;;
47962;Laerm;33723;50.928;6.960;2023-01-10T12:27:40;65.54;56.33;74.88;;
47962;Laerm;33723;50.928;6.960;2023-01-10T12:30:12;66.54;58.42;77.11;;
47962;Laerm;33723;50.928;6.960;2023-01-10T12:32:43;67.06;58.65;75.68;;
47962;Laerm;33723;50.928;6.960;2023-01-10T12:35:16;67.77;57.67;74.36;;
47962;Laerm;33723;50.928;6.960;2023-01-10T12:40:10;67.81;56.02;76.62;;
47962;Laerm;33723;50.928;6.960;2023-01-10T12:46:02;70.16;61.29;75.89;;
47962;Laerm;33723;50.928;6.960;2023-01-10T12:48:43;71.52;66.10;83.97;;
47962;Laerm;33723;50.928;6.960;2023-01-10T12:51:11;70.14;55.84;77.85;;
47962;Laerm;33723;50.928;6.960;2023-01-10T12:53:40;66.78;58.69;75.27;;
47962;Laerm;33723;50.928;6.960;2023-01-10T12:56:08;66.22;52.56;84.98;;
47962;Laerm;33723;50.928;6.960;2023-01-10T12:58:48;64.98;53.06;74.11;;
47962;Laerm;33723;50.928;6.960;2023-01-10T13:01:19;65.21;52.37;75.99;;
47962;Laerm;33723;50.928;6.960;2023-01-10T13:03:45;65.05;51.36;78.95;;
47962;Laerm;33723;50.928;6.960;2023-01-10T13:06:20;64.64;51.32;75.32;;
47962;Laerm;33723;50.928;6.960;2023-01-10T13:08:46;66.97;54.86;77.23;;
47962;Laerm;33723;50.928;6.960;2023-01-10T13:11:12;64.04;51.97;75.47;;
47962;Laerm;33723;50.928;6.960;2023-01-10T13:13:44;66.69;52.29;85.30;;
47962;Laerm;33723;50.928;6.960;2023-01-10T13:16:19;67.43;51.78;80.23;;
47962;Laerm;33723;50.928;6.960;2023-01-10T13:18:57;66.61;56.06;77.24;;
47962;Laerm;33723;50.928;6.960;2023-01-10T13:21:24;66.63;53.55;75.28;;
47962;Laerm;33723;50.928;6.960;2023-01-10T13:23:53;67.99;52.36;79.83;;
47962;Laerm;33723;50.928;6.960;2023-01-10T13:26:21;68.18;51.98;81.58;;
47962;Laerm;33723;50.928;6.960;2023-01-10T13:31:43;64.66;52.59;73.58;;
47962;Laerm;33723;50.928;6.960;2023-01-10T13:34:10;66.71;55.44;75.45;;
47962;Laerm;33723;50.928;6.960;2023-01-10T13:36:42;67.12;52.18;81.65;;
47962;Laerm;33723;50.928;6.960;2023-01-10T13:39:18;70.95;53.74;89.30;;
47962;Laerm;33723;50.928;6.960;2023-01-10T13:55:27;64.01;51.07;71.70;;
47962;Laerm;33723;50.928;6.960;2023-01-10T13:57:54;67.58;56.01;77.82;;
47962;Laerm;33723;50.928;6.960;2023-01-10T14:00:21;65.30;53.86;77.11;;
47962;Laerm;33723;50.928;6.960;2023-01-10T14:03:05;69.32;53.98;86.92;;
47962;Laerm;33723;50.928;6.960;2023-01-10T14:05:30;67.25;57.51;76.18;;
47962;Laerm;33723;50.928;6.960;2023-01-10T14:07:55;66.45;50.15;77.63;;
47962;Laerm;33723;50.928;6.960;2023-01-10T14:10:25;64.50;55.83;72.10;;
47962;Laerm;33723;50.928;6.960;2023-01-10T14:12:55;68.28;56.72;78.09;;
47962;Laerm;33723;50.928;6.960;2023-01-10T14:18:00;65.45;52.93;74.84;;
47962;Laerm;33723;50.928;6.960;2023-01-10T14:20:26;66.65;54.88;82.04;;
47962;Laerm;33723;50.928;6.960;2023-01-10T14:22:56;67.53;56.01;77.46;;
47962;Laerm;33723;50.928;6.960;2023-01-10T14:25:22;67.77;55.59;88.30;;
47962;Laerm;33723;50.928;6.960;2023-01-10T14:27:49;66.63;52.41;72.40;;
47962;Laerm;33723;50.928;6.960;2023-01-10T14:32:45;65.62;53.65;71.37;;
47962;Laerm;33723;50.928;6.960;2023-01-10T14:35:16;66.35;54.09;76.54;;
47962;Laerm;33723;50.928;6.960;2023-01-10T14:37:43;66.97;56.24;78.07;;
47962;Laerm;33723;50.928;6.960;2023-01-10T14:40:17;67.96;53.84;79.97;;
47962;Laerm;33723;50.928;6.960;2023-01-10T14:42:45;68.35;53.62;88.74;;
47962;Laerm;33723;50.928;6.960;2023-01-10T14:45:19;66.00;53.49;78.74;;
47962;Laerm;33723;50.928;6.960;2023-01-10T14:47:49;67.67;52.96;84.60;;
47962;Laerm;33723;50.928;6.960;2023-01-10T14:50:22;67.20;55.32;80.70;;
47962;Laerm;33723;50.928;6.960;2023-01-10T14:52:47;66.24;53.72;74.68;;
47962;Laerm;33723;50.928;6.960;2023-01-10T14:55:14;66.63;55.05;78.33;;
47962;Laerm;33723;50.928;6.960;2023-01-10T14:57:50;67.24;55.83;83.21;;
47962;Laerm;33723;50.928;6.960;2023-01-10T15:00:16;67.73;54.49;77.32;;
47962;Laerm;33723;50.928;6.960;2023-01-10T15:02:45;67.38;55.01;74.84;;
47962;Laerm;33723;50.928;6.960;2023-01-10T15:05:16;67.17;55.38;76.25;;
47962;Laerm;33723;50.928;6.960;2023-01-10T15:07:42;67.50;56.96;85.59;;
47962;Laerm;33723;50.928;6.960;2023-01-10T15:10:19;66.83;54.65;78.82;;
47962;Laerm;33723;50.928;6.960;2023-01-10T15:12:46;66.00;54.43;75.05;;
47962;Laerm;33723;50.928;6.960;2023-01-10T15:15:15;68.10;56.10;77.69;;
47962;Laerm;33723;50.928;6.960;2023-01-10T15:17:41;66.97;55.20;78.21;;
47962;Laerm;33723;50.928;6.960;2023-01-10T15:20:09;65.22;52.72;80.45;;
47962;Laerm;33723;50.928;6.960;2023-01-10T15:22:37;66.83;56.30;75.60;;
47962;Laerm;33723;50.928;6.960;2023-01-10T15:25:04;67.69;54.80;82.43;;
47962;Laerm;33723;50.928;6.960;2023-01-10T15:27:30;65.65;52.53;73.75;;
47962;Laerm;33723;50.928;6.960;2023-01-10T15:29:56;66.74;55.16;78.46;;
47962;Laerm;33723;50.928;6.960;2023-01-10T15:32:22;65.72;54.08;78.14;;
47962;Laerm;33723;50.928;6.960;2023-01-10T15:34:51;67.75;52.71;76.96;;
47962;Laerm;33723;50.928;6.960;2023-01-10T15:37:21;66.14;53.00;74.88;;
47962;Laerm;33723;50.928;6.960;2023-01-10T15:39:47;67.44;55.17;79.04;;
47962;Laerm;33723;50.928;6.960;2023-01-10T15:42:12;65.19;53.17;81.72;;
47962;Laerm;33723;50.928;6.960;2023-01-10T15:44:41;65.19;54.68;82.65;;
47962;Laerm;33723;50.928;6.960;2023-01-10T15:49:53;67.00;53.23;76.60;;
47962;Laerm;33723;50.928;6.960;2023-01-10T15:52:21;67.48;56.17;75.36;;
47962;Laerm;33723;50.928;6.960;2023-01-10T15:54:46;66.67;55.18;76.96;;
47962;Laerm;33723;50.928;6.960;2023-01-10T15:59:46;67.57;54.12;79.80;;
47962;Laerm;33723;50.928;6.960;2023-01-10T16:02:30;66.83;54.94;80.41;;
47962;Laerm;33723;50.928;6.960;2023-01-10T16:04:57;67.07;53.24;75.97;;
47962;Laerm;33723;50.928;6.960;2023-01-10T16:07:24;68.65;56.50;77.59;;
47962;Laerm;33723;50.928;6.960;2023-01-10T16:09:52;67.66;55.28;76.52;;
47962;Laerm;33723;50.928;6.960;2023-01-10T16:12:22;68.50;58.88;77.67;;
47962;Laerm;33723;50.928;6.960;2023-01-10T16:15:13;69.15;55.10;78.79;;
47962;Laerm;33723;50.928;6.960;2023-01-10T16:17:38;68.95;56.34;80.10;;
47962;Laerm;33723;50.928;6.960;2023-01-10T16:20:03;70.01;56.19;81.39;;
47962;Laerm;33723;50.928;6.960;2023-01-10T16:22:29;70.03;55.41;85.95;;
47962;Laerm;33723;50.928;6.960;2023-01-10T16:24:55;69.88;57.90;76.49;;
47962;Laerm;33723;50.928;6.960;2023-01-10T16:27:21;70.01;55.68;84.94;;
47962;Laerm;33723;50.928;6.960;2023-01-10T16:29:46;70.35;58.95;76.62;;
47962;Laerm;33723;50.928;6.960;2023-01-10T16:32:12;68.84;55.94;75.90;;
47962;Laerm;33723;50.928;6.960;2023-01-10T16:34:38;69.97;56.14;76.95;;
47962;Laerm;33723;50.928;6.960;2023-01-10T16:37:03;69.29;57.94;76.02;;
47962;Laerm;33723;50.928;6.960;2023-01-10T16:39:28;69.45;57.57;79.00;;
47962;Laerm;33723;50.928;6.960;2023-01-10T16:41:54;70.54;56.42;90.11;;
47962;Laerm;33723;50.928;6.960;2023-01-10T16:44:38;68.81;56.60;78.07;;
47962;Laerm;33723;50.928;6.960;2023-01-10T16:47:03;70.63;55.82;77.11;;
47962;Laerm;33723;50.928;6.960;2023-01-10T16:49:28;69.47;55.41;80.93;;
47962;Laerm;33723;50.928;6.960;2023-01-10T16:51:54;69.85;55.79;90.90;;
47962;Laerm;33723;50.928;6.960;2023-01-10T16:54:21;70.42;55.78;83.65;;
47962;Laerm;33723;50.928;6.960;2023-01-10T16:56:47;69.73;55.96;79.07;;
47962;Laerm;33723;50.928;6.960;2023-01-10T16:59:13;69.67;57.75;77.91;;
47962;Laerm;33723;50.928;6.960;2023-01-10T17:01:39;70.37;57.22;75.80;;
47962;Laerm;33723;50.928;6.960;2023-01-10T17:04:06;70.05;58.98;76.30;;
47962;Laerm;33723;50.928;6.960;2023-01-10T17:06:32;70.85;55.56;78.71;;
47962;Laerm;33723;50.928;6.960;2023-01-10T17:08:57;71.81;60.35;80.31;;
47962;Laerm;33723;50.928;6.960;2023-01-10T17:11:27;70.53;59.18;77.49;;
47962;Laerm;33723;50.928;6.960;2023-01-10T17:13:53;71.03;57.76;77.62;;
47962;Laerm;33723;50.928;6.960;2023-01-10T17:16:18;71.27;57.07;78.54;;
47962;Laerm;33723;50.928;6.960;2023-01-10T17:18:43;70.39;55.38;77.68;;
47962;Laerm;33723;50.928;6.960;2023-01-10T17:21:12;69.41;57.40;76.09;;
47962;Laerm;33723;50.928;6.960;2023-01-10T17:23:38;69.92;56.54;77.85;;
47962;Laerm;33723;50.928;6.960;2023-01-10T17:26:05;70.29;57.39;78.36;;
47962;Laerm;33723;50.928;6.960;2023-01-10T17:28:31;71.11;56.64;81.82;;
47962;Laerm;33723;50.928;6.960;2023-01-10T17:30:56;69.69;57.65;76.75;;
47962;Laerm;33723;50.928;6.960;2023-01-10T17:33:22;69.13;56.99;76.09;;
47962;Laerm;33723;50.928;6.960;2023-01-10T17:35:47;70.80;56.78;78.46;;
47962;Laerm;33723;50.928;6.960;2023-01-10T17:38:13;69.86;58.68;80.99;;
47962;Laerm;33723;50.928;6.960;2023-01-10T17:40:42;69.19;55.21;76.55;;
47962;Laerm;33723;50.928;6.960;2023-01-10T17:43:08;69.38;54.87;77.16;;
47962;Laerm;33723;50.928;6.960;2023-01-10T17:45:37;70.77;58.44;77.92;;
47962;Laerm;33723;50.928;6.960;2023-01-10T17:48:02;69.79;56.65;77.12;;
47962;Laerm;33723;50.928;6.960;2023-01-10T17:50:27;69.61;55.95;80.36;;
47962;Laerm;33723;50.928;6.960;2023-01-10T17:52:52;70.23;57.40;77.25;;
47962;Laerm;33723;50.928;6.960;2023-01-10T17:55:17;68.85;56.36;80.55;;
47962;Laerm;33723;50.928;6.960;2023-01-10T17:57:43;71.70;58.61;79.23;;
47962;Laerm;33723;50.928;6.960;2023-01-10T18:00:08;71.36;60.12;83.27;;
47962;Laerm;33723;50.928;6.960;2023-01-10T18:02:35;68.45;55.01;76.78;;
47962;Laerm;33723;50.928;6.960;2023-01-10T18:05:00;70.18;56.80;78.01;;
47962;Laerm;33723;50.928;6.960;2023-01-10T18:07:25;70.02;56.88;78.84;;
47962;Laerm;33723;50.928;6.960;2023-01-10T18:09:50;69.81;56.99;78.99;;
47962;Laerm;33723;50.928;6.960;2023-01-10T18:12:16;67.28;51.49;81.22;;
47962;Laerm;33723;50.928;6.960;2023-01-10T18:14:42;69.11;54.91;77.04;;
47962;Laerm;33723;50.928;6.960;2023-01-10T18:17:08;69.68;56.08;78.05;;
47962;Laerm;33723;50.928;6.960;2023-01-10T18:19:34;70.38;56.49;78.06;;
47962;Laerm;33723;50.928;6.960;2023-01-10T18:22:00;68.76;55.23;75.50;;
47962;Laerm;33723;50.928;6.960;2023-01-10T18:24:25;67.86;54.76;76.42;;
47962;Laerm;33723;50.928;6.960;2023-01-10T18:26:50;67.51;55.65;77.27;;
47962;Laerm;33723;50.928;6.960;2023-01-10T18:29:16;69.67;57.35;82.16;;
47962;Laerm;33723;50.928;6.960;2023-01-10T18:31:41;68.96;53.20;76.50;;
47962;Laerm;33723;50.928;6.960;2023-01-10T18:34:07;68.34;53.17;81.14;;
47962;Laerm;33723;50.928;6.960;2023-01-10T18:36:32;68.67;55.51;82.78;;
47962;Laerm;33723;50.928;6.960;2023-01-10T18:38:59;69.09;53.76;85.17;;
47962;Laerm;33723;50.928;6.960;2023-01-10T18:41:24;67.80;55.44;76.02;;
47962;Laerm;33723;50.928;6.960;2023-01-10T18:43:50;68.12;54.80;77.81;;
47962;Laerm;33723;50.928;6.960;2023-01-10T18:46:16;69.27;54.03;79.57;;
47962;Laerm;33723;50.928;6.960;2023-01-10T18:48:42;66.71;54.07;75.01;;
47962;Laerm;33723;50.928;6.960;2023-01-10T18:51:08;65.47;48.25;74.36;;
47962;Laerm;33723;50.928;6.960;2023-01-10T18:53:36;66.43;52.11;78.08;;
47962;Laerm;33723;50.928;6.960;2023-01-10T18:56:02;66.65;52.07;75.15;;
47962;Laerm;33723;50.928;6.960;2023-01-10T18:58:35;65.34;50.17;77.58;;
47962;Laerm;33723;50.928;6.960;2023-01-10T19:01:05;65.79;48.81;74.06;;
47962;Laerm;33723;50.928;6.960;2023-01-10T19:03:31;62.44;53.06;72.84;;
47962;Laerm;33723;50.928;6.960;2023-01-10T19:05:57;65.03;49.79;73.59;;
47962;Laerm;33723;50.928;6.960;2023-01-10T19:08:23;65.49;51.32;78.95;;
47962;Laerm;33723;50.928;6.960;2023-01-10T19:10:48;65.39;53.01;75.89;;
47962;Laerm;33723;50.928;6.960;2023-01-10T19:13:13;67.63;52.33;75.89;;
47962;Laerm;33723;50.928;6.960;2023-01-10T19:15:38;67.46;49.74;93.81;;
47962;Laerm;33723;50.928;6.960;2023-01-10T19:18:04;66.07;49.10;78.46;;
47962;Laerm;33723;50.928;6.960;2023-01-10T19:20:30;65.01;50.58;79.29;;
47962;Laerm;33723;50.928;6.960;2023-01-10T19:22:55;66.87;49.60;79.56;;
47962;Laerm;33723;50.928;6.960;2023-01-10T19:25:20;63.88;46.92;71.73;;
47962;Laerm;33723;50.928;6.960;2023-01-10T19:27:46;65.10;52.04;76.42;;
47962;Laerm;33723;50.928;6.960;2023-01-10T19:30:11;64.95;49.67;75.28;;
47962;Laerm;33723;50.928;6.960;2023-01-10T19:32:36;66.29;52.15;88.11;;
47962;Laerm;33723;50.928;6.960;2023-01-10T19:35:03;68.97;47.72;93.98;;
47962;Laerm;33723;50.928;6.960;2023-01-10T19:37:28;64.46;48.43;83.80;;
47962;Laerm;33723;50.928;6.960;2023-01-10T19:39:53;61.14;47.65;71.56;;
47962;Laerm;33723;50.928;6.960;2023-01-10T19:42:18;66.24;48.07;77.61;;
47962;Laerm;33723;50.928;6.960;2023-01-10T19:44:44;65.11;47.40;84.40;;
47962;Laerm;33723;50.928;6.960;2023-01-10T19:47:09;63.39;49.78;72.79;;
47962;Laerm;33723;50.928;6.960;2023-01-10T19:49:35;65.88;50.13;74.03;;
47962;Laerm;33723;50.928;6.960;2023-01-10T19:52:01;64.39;44.95;77.23;;
47962;Laerm;33723;50.928;6.960;2023-01-10T19:54:27;62.39;46.55;76.88;;
47962;Laerm;33723;50.928;6.960;2023-01-10T19:56:52;65.02;47.91;76.03;;
47962;Laerm;33723;50.928;6.960;2023-01-10T19:59:17;65.65;50.40;76.47;;
47962;Laerm;33723;50.928;6.960;2023-01-10T20:01:42;63.14;46.35;71.59;;
47962;Laerm;33723;50.928;6.960;2023-01-10T20:04:08;65.02;46.18;74.63;;
47962;Laerm;33723;50.928;6.960;2023-01-10T20:06:38;64.03;49.75;75.20;;
47962;Laerm;33723;50.928;6.960;2023-01-10T20:09:03;59.06;44.62;71.55;;
47962;Laerm;33723;50.928;6.960;2023-01-10T20:11:29;64.17;50.51;78.61;;
47962;Laerm;33723;50.928;6.960;2023-01-10T20:14:01;64.55;47.24;76.29;;
47962;Laerm;33723;50.928;6.960;2023-01-10T20:16:26;64.00;47.14;75.43;;
47962;Laerm;33723;50.928;6.960;2023-01-10T20:18:51;62.18;47.02;84.67;;
47962;Laerm;33723;50.928;6.960;2023-01-10T20:21:17;65.63;51.02;75.29;;
47962;Laerm;33723;50.928;6.960;2023-01-10T20:23:43;65.43;50.96;79.14;;
47962;Laerm;33723;50.928;6.960;2023-01-10T20:26:13;64.13;47.08;75.73;;
47962;Laerm;33723;50.928;6.960;2023-01-10T20:28:39;65.03;47.30;76.12;;
47962;Laerm;33723;50.928;6.960;2023-01-10T20:31:06;63.98;51.82;71.82;;
47962;Laerm;33723;50.928;6.960;2023-01-10T20:33:31;64.34;48.73;75.10;;
47962;Laerm;33723;50.928;6.960;2023-01-10T20:36:01;63.59;46.15;75.38;;
47962;Laerm;33723;50.928;6.960;2023-01-10T20:38:30;64.68;48.45;78.69;;
47962;Laerm;33723;50.928;6.960;2023-01-10T20:40:56;64.56;46.64;73.67;;
47962;Laerm;33723;50.928;6.960;2023-01-10T20:43:22;63.74;48.49;78.43;;
47962;Laerm;33723;50.928;6.960;2023-01-10T20:45:47;64.10;45.91;73.40;;
47962;Laerm;33723;50.928;6.960;2023-01-10T20:48:12;64.98;50.20;73.80;;
47962;Laerm;33723;50.928;6.960;2023-01-10T20:50:40;65.21;43.63;77.01;;
47962;Laerm;33723;50.928;6.960;2023-01-10T20:53:05;64.29;44.83;80.73;;
47962;Laerm;33723;50.928;6.960;2023-01-10T20:55:33;64.46;50.30;74.95;;
47962;Laerm;33723;50.928;6.960;2023-01-10T20:57:58;63.22;46.15;73.74;;
47962;Laerm;33723;50.928;6.960;2023-01-10T21:00:23;64.27;46.71;86.31;;
47962;Laerm;33723;50.928;6.960;2023-01-10T21:02:48;64.50;47.26;82.44;;